Time;durP1;ratioP1;P1;durP2;ratioP2;P2;SDS_P1;SDS_P2;PMS_P1;PMS_P2;Temp;Humidity;BMP_temperature;BMP_pressure;BME280_temperature;BME280_humidity;BME280_pressure;Samples;Min_cycle;Max_cycle;Signal;HPM_P1;HPM_P2
2023/01/31 00:01:50;;;;;;;19.05;8.40;;;3.20;99.90;;;;;;5052066;28;20558;-72
2023/01/31 00:04:17;;;;;;;17.38;6.63;;;3.10;99.90;;;;;;5057637;28;20041;-74
2023/01/31 00:06:49;;;;;;;22.45;7.63;;;3.10;99.90;;;;;;5071089;28;20438;-72
2023/01/31 00:09:18;;;;;;;21.80;7.45;;;3.10;99.90;;;;;;5072248;28;20037;-72
2023/01/31 00:11:45;;;;;;;20.08;8.05;;;3.10;99.90;;;;;;5072385;28;20044;-71
2023/01/31 00:14:19;;;;;;;19.65;7.50;;;3.10;99.90;;;;;;5071205;28;20036;-70
2023/01/31 00:16:47;;;;;;;13.05;7.03;;;3.00;99.90;;;;;;5088009;28;20044;-71
2023/01/31 00:19:14;;;;;;;14.88;7.07;;;3.00;99.90;;;;;;5070487;28;20127;-71
2023/01/31 00:21:42;;;;;;;17.85;7.70;;;3.00;99.90;;;;;;5037973;28;20075;-73
2023/01/31 00:24:13;;;;;;;15.77;7.10;;;3.00;99.90;;;;;;5070332;28;20036;-71
2023/01/31 00:26:41;;;;;;;17.55;7.40;;;3.00;99.90;;;;;;5084407;28;20037;-73
2023/01/31 00:29:09;;;;;;;19.20;7.70;;;3.00;99.90;;;;;;5065898;28;20469;-70
2023/01/31 00:31:36;;;;;;;21.58;8.27;;;3.00;99.90;;;;;;5058532;28;20106;-71
2023/01/31 00:34:05;;;;;;;21.35;8.07;;;3.00;99.90;;;;;;5037811;28;20037;-71
2023/01/31 00:36:34;;;;;;;20.63;7.35;;;2.90;99.90;;;;;;5052840;28;20216;-71
2023/01/31 00:39:04;;;;;;;18.50;7.57;;;3.00;99.90;;;;;;5059641;28;20123;-71
2023/01/31 00:41:32;;;;;;;20.02;7.25;;;3.00;99.90;;;;;;5065287;28;20044;-72
2023/01/31 00:44:00;;;;;;;19.75;7.40;;;3.00;99.90;;;;;;5058909;28;20072;-69
2023/01/31 00:46:27;;;;;;;16.45;7.28;;;3.00;99.90;;;;;;5051879;28;20503;-75
2023/01/31 00:48:55;;;;;;;23.27;7.57;;;3.10;99.90;;;;;;5056865;28;20412;-68
2023/01/31 00:51:24;;;;;;;15.70;7.15;;;3.00;99.90;;;;;;5052571;28;20064;-75
2023/01/31 00:53:53;;;;;;;16.13;7.30;;;3.00;99.90;;;;;;5053768;28;20388;-74
2023/01/31 00:56:22;;;;;;;16.25;7.18;;;3.00;99.90;;;;;;5073246;28;20040;-72
2023/01/31 00:58:50;;;;;;;21.27;8.10;;;3.00;99.90;;;;;;5053115;28;20535;-71
2023/01/31 01:01:23;;;;;;;18.73;8.10;;;2.90;99.90;;;;;;5053653;28;20048;-70
2023/01/31 01:03:51;;;;;;;22.55;8.00;;;2.90;99.90;;;;;;5053728;28;20459;-74
2023/01/31 01:06:19;;;;;;;16.23;7.13;;;2.90;99.90;;;;;;5069501;28;20090;-71
2023/01/31 01:08:46;;;;;;;15.35;7.25;;;2.90;99.90;;;;;;5060897;28;20048;-71
2023/01/31 01:11:17;;;;;;;20.35;8.48;;;2.90;99.90;;;;;;5073490;28;20104;-72
2023/01/31 01:13:46;;;;;;;16.52;7.63;;;2.80;99.90;;;;;;5061771;28;20055;-71
2023/01/31 01:16:19;;;;;;;18.92;7.38;;;2.70;99.90;;;;;;5027075;28;20568;-71
2023/01/31 01:18:48;;;;;;;17.25;7.85;;;2.80;99.90;;;;;;5037998;28;20033;-70
2023/01/31 01:21:18;;;;;;;16.20;7.53;;;2.80;99.90;;;;;;5048449;28;20124;-72
2023/01/31 01:23:46;;;;;;;20.70;8.05;;;2.70;99.90;;;;;;5053885;28;20123;-71
2023/01/31 01:26:16;;;;;;;20.90;8.45;;;2.80;99.90;;;;;;5061539;28;20519;-71
2023/01/31 01:28:44;;;;;;;20.45;7.65;;;2.70;99.90;;;;;;5069695;28;20040;-72
2023/01/31 01:31:15;;;;;;;16.92;8.13;;;2.70;99.90;;;;;;5046573;28;20487;-71
2023/01/31 01:33:43;;;;;;;;;;;2.70;99.90;;;;;;5055664;28;20037;-71
2023/01/31 01:36:14;;;;;;;18.30;7.60;;;2.70;99.90;;;;;;5047643;28;19946;-71
2023/01/31 01:38:43;;;;;;;20.10;8.25;;;2.70;99.90;;;;;;5065099;28;20445;-71
2023/01/31 01:41:11;;;;;;;17.98;7.82;;;2.70;99.90;;;;;;5051476;28;20120;-71
2023/01/31 01:43:39;;;;;;;21.50;8.02;;;2.70;99.90;;;;;;5059040;28;20119;-71
2023/01/31 01:46:09;;;;;;;20.08;8.05;;;2.70;99.90;;;;;;5086364;28;20396;-70
2023/01/31 01:48:37;;;;;;;22.48;8.02;;;2.70;99.90;;;;;;5068521;28;20040;-73
2023/01/31 01:51:06;;;;;;;15.65;7.47;;;2.60;99.90;;;;;;5055930;28;20048;-71
2023/01/31 01:53:38;;;;;;;17.23;7.80;;;2.60;99.90;;;;;;5051677;28;20560;-71
2023/01/31 01:56:22;;;;;;;22.17;7.78;;;2.50;99.90;;;;;;5071064;28;20045;-72
2023/01/31 01:59:02;;;;;;;18.83;7.90;;;2.60;99.90;;;;;;5071571;28;20044;-70
2023/01/31 02:01:35;;;;;;;21.13;7.82;;;2.50;99.90;;;;;;5069605;28;20086;-73
2023/01/31 02:04:12;;;;;;;21.27;8.45;;;2.40;99.90;;;;;;5090026;28;20459;-71
2023/01/31 02:06:42;;;;;;;24.23;8.18;;;2.40;99.90;;;;;;5047958;28;20040;-72
2023/01/31 02:09:20;;;;;;;19.83;8.20;;;2.30;99.90;;;;;;5073018;28;20059;-72
2023/01/31 02:11:48;;;;;;;24.73;8.57;;;2.30;99.90;;;;;;5056271;28;20094;-70
2023/01/31 02:14:16;;;;;;;17.27;7.72;;;2.20;99.90;;;;;;5074576;28;20071;-72
2023/01/31 02:16:43;;;;;;;21.52;8.65;;;2.20;99.90;;;;;;5045779;28;20048;-71
2023/01/31 02:19:38;;;;;;;24.63;9.55;;;2.20;99.90;;;;;;5077225;28;20067;-72
2023/01/31 02:22:31;;;;;;;23.95;8.43;;;2.20;99.90;;;;;;5056287;28;20033;-71
2023/01/31 02:25:21;;;;;;;17.33;8.13;;;2.30;99.90;;;;;;5042024;28;20527;-71
2023/01/31 02:28:20;;;;;;;21.50;8.70;;;2.20;99.90;;;;;;5054309;28;20407;-73
2023/01/31 02:31:09;;;;;;;18.10;8.50;;;2.40;99.90;;;;;;5055969;28;20524;-73
2023/01/31 02:33:46;;;;;;;22.08;8.18;;;2.40;99.90;;;;;;5072789;28;20504;-71
2023/01/31 02:37:00;;;;;;;19.05;8.23;;;2.30;99.90;;;;;;5051668;28;20041;-70
2023/01/31 02:40:11;;;;;;;18.92;7.53;;;2.30;99.90;;;;;;4989515;28;20050;-71
2023/01/31 02:42:39;;;;;;;17.50;7.53;;;2.40;99.90;;;;;;4952143;29;20104;-71
2023/01/31 02:45:21;;;;;;;22.50;8.95;;;2.40;99.90;;;;;;4935939;29;20306;-71
2023/01/31 02:48:06;;;;;;;26.38;8.02;;;2.30;99.90;;;;;;4937362;29;20059;-71
2023/01/31 02:50:57;;;;;;;22.50;10.02;;;2.30;99.90;;;;;;4937747;29;20055;-71
2023/01/31 02:53:32;;;;;;;19.20;8.25;;;2.30;99.90;;;;;;4921463;28;20079;-71
2023/01/31 02:56:18;;;;;;;18.90;8.20;;;2.30;99.90;;;;;;4936343;29;20058;-72
2023/01/31 02:59:02;;;;;;;17.85;8.20;;;2.20;99.90;;;;;;4935870;29;20159;-71
2023/01/31 03:01:45;;;;;;;19.35;8.40;;;2.20;99.90;;;;;;4952134;29;20150;-70
2023/01/31 03:04:13;;;;;;;23.45;8.45;;;2.10;99.90;;;;;;4934240;29;20074;-71
2023/01/31 03:07:06;;;;;;;20.42;7.75;;;2.10;99.90;;;;;;4935844;29;20051;-70
2023/01/31 03:09:46;;;;;;;19.38;9.15;;;2.00;99.90;;;;;;4951238;28;20066;-72
2023/01/31 03:12:38;;;;;;;25.27;7.85;;;2.00;99.90;;;;;;4938582;28;20077;-70
2023/01/31 03:17:30;;;;;;;18.20;7.30;;;2.00;99.90;;;;;;4996396;28;20092;-71
2023/01/31 03:18:33;;;;;;;20.48;7.70;;;2.00;99.90;;;;;;5051359;28;20140;-70
2023/01/31 03:21:07;;;;;;;16.45;7.63;;;2.10;99.90;;;;;;5047591;28;20072;-72
2023/01/31 03:23:37;;;;;;;21.02;7.75;;;2.00;99.90;;;;;;5033068;28;20565;-72
2023/01/31 03:26:06;;;;;;;18.40;7.70;;;2.00;99.90;;;;;;5064932;28;20037;-71
2023/01/31 03:28:35;;;;;;;21.05;8.38;;;2.00;99.90;;;;;;5048546;28;20416;-69
2023/01/31 03:31:06;;;;;;;24.83;8.63;;;2.00;99.90;;;;;;5047382;28;20551;-68
2023/01/31 03:33:42;;;;;;;23.05;8.30;;;1.90;99.90;;;;;;5063941;28;20098;-72
2023/01/31 03:36:37;;;;;;;24.25;9.52;;;2.00;99.90;;;;;;5047898;28;20057;-70
2023/01/31 03:39:49;;;;;;;19.42;7.93;;;1.90;99.90;;;;;;5031275;28;20514;-71
2023/01/31 03:42:38;;;;;;;24.45;8.02;;;1.90;99.90;;;;;;5051797;28;20049;-71
2023/01/31 03:45:11;;;;;;;21.67;7.75;;;1.90;99.90;;;;;;5049950;28;20049;-71
2023/01/31 03:47:42;;;;;;;22.38;7.43;;;1.90;99.90;;;;;;5047676;28;20048;-71
2023/01/31 03:50:15;;;;;;;20.52;8.40;;;2.00;99.90;;;;;;5046650;28;20711;-70
2023/01/31 03:53:09;;;;;;;19.40;7.85;;;2.00;99.90;;;;;;5049691;28;20052;-74
2023/01/31 03:55:42;;;;;;;21.42;8.13;;;2.00;99.90;;;;;;5049722;28;20526;-71
2023/01/31 03:58:12;;;;;;;26.13;7.80;;;2.00;99.90;;;;;;5049460;28;20052;-72
2023/01/31 04:00:43;;;;;;;20.70;8.02;;;1.90;99.90;;;;;;5025608;28;20233;-70
2023/01/31 04:03:27;;;;;;;17.27;7.28;;;2.00;99.90;;;;;;5038731;28;20139;-72
2023/01/31 04:05:55;;;;;;;20.88;7.47;;;2.10;99.90;;;;;;5050319;28;20448;-72
2023/01/31 04:08:23;;;;;;;19.85;7.72;;;2.10;99.90;;;;;;5050356;28;20377;-73
2023/01/31 04:11:07;;;;;;;20.38;8.10;;;2.10;99.90;;;;;;5033896;28;20099;-71
2023/01/31 04:13:34;;;;;;;17.95;8.55;;;2.10;99.90;;;;;;5044749;28;20092;-71
2023/01/31 04:16:03;;;;;;;19.45;7.03;;;2.10;99.90;;;;;;5031463;28;20079;-70
2023/01/31 04:18:30;;;;;;;16.67;7.40;;;2.10;99.90;;;;;;5049361;28;20051;-70
2023/01/31 04:20:58;;;;;;;18.63;8.05;;;2.00;99.90;;;;;;5052379;28;20059;-71
2023/01/31 04:23:25;;;;;;;17.67;7.65;;;2.00;99.90;;;;;;5048909;28;20068;-70
2023/01/31 04:25:53;;;;;;;23.17;8.38;;;2.10;99.90;;;;;;5032219;28;20495;-70
2023/01/31 04:28:21;;;;;;;22.38;7.65;;;2.10;99.90;;;;;;5050877;28;20128;-69
2023/01/31 04:30:55;;;;;;;18.58;7.32;;;2.00;99.90;;;;;;5049111;28;20135;-70
2023/01/31 04:33:23;;;;;;;19.83;7.72;;;2.00;99.90;;;;;;5066519;28;20049;-70
2023/01/31 04:35:51;;;;;;;17.10;7.88;;;2.10;99.90;;;;;;5046980;28;20044;-72
2023/01/31 04:38:18;;;;;;;16.45;8.50;;;2.10;99.90;;;;;;5045525;28;20045;-71
2023/01/31 04:40:45;;;;;;;27.83;8.57;;;2.10;99.90;;;;;;5048563;28;20124;-70
2023/01/31 04:43:13;;;;;;;20.58;8.15;;;2.10;99.90;;;;;;5029929;28;20147;-71
2023/01/31 04:45:41;;;;;;;22.42;7.90;;;2.10;99.90;;;;;;5030848;28;20041;-71
2023/01/31 04:48:08;;;;;;;22.15;8.88;;;2.20;99.90;;;;;;5051697;28;20503;-71
2023/01/31 04:50:36;;;;;;;18.45;8.32;;;2.20;99.90;;;;;;5050952;28;20045;-70
2023/01/31 04:53:03;;;;;;;26.02;8.95;;;2.20;99.90;;;;;;5031455;28;20053;-69
2023/01/31 04:55:31;;;;;;;26.52;8.43;;;2.20;99.90;;;;;;5045446;28;20475;-69
2023/01/31 04:57:58;;;;;;;22.85;8.68;;;2.20;99.90;;;;;;5029936;28;20099;-70
2023/01/31 05:00:26;;;;;;;22.52;9.02;;;2.20;99.90;;;;;;5063500;28;20051;-72
2023/01/31 05:02:53;;;;;;;23.45;9.25;;;2.10;99.90;;;;;;5048077;28;20917;-70
2023/01/31 05:05:21;;;;;;;23.45;8.35;;;2.10;99.90;;;;;;5029574;28;20045;-70
2023/01/31 05:07:48;;;;;;;26.30;8.73;;;2.10;99.90;;;;;;5048834;28;20131;-73
2023/01/31 05:10:17;;;;;;;20.20;9.32;;;2.10;99.90;;;;;;5046999;28;20492;-71
2023/01/31 05:12:45;;;;;;;24.65;8.73;;;2.10;99.90;;;;;;5049980;28;20499;-71
2023/01/31 05:15:12;;;;;;;21.73;9.20;;;2.10;99.90;;;;;;5050668;28;20057;-70
2023/01/31 05:17:39;;;;;;;22.40;9.07;;;2.10;99.90;;;;;;5029443;28;20104;-70
2023/01/31 05:20:07;;;;;;;24.40;8.60;;;2.20;99.90;;;;;;5029511;28;20129;-71
2023/01/31 05:22:34;;;;;;;29.92;9.85;;;2.20;99.90;;;;;;5029885;28;20041;-70
2023/01/31 05:25:02;;;;;;;23.55;9.27;;;2.20;99.90;;;;;;5029227;28;20162;-71
2023/01/31 05:27:29;;;;;;;24.55;9.10;;;2.20;99.90;;;;;;5046696;28;20567;-70
2023/01/31 05:29:59;;;;;;;22.20;7.88;;;2.30;99.90;;;;;;5045825;28;20033;-70
2023/01/31 05:32:26;;;;;;;21.65;8.63;;;2.30;99.90;;;;;;5035494;28;20037;-71
2023/01/31 05:34:54;;;;;;;25.00;9.20;;;2.30;99.90;;;;;;5047858;28;20095;-70
2023/01/31 05:37:21;;;;;;;21.08;7.95;;;2.40;99.90;;;;;;5036677;28;20036;-70
2023/01/31 05:39:48;;;;;;;24.55;8.63;;;2.40;99.90;;;;;;5040901;28;20045;-70
2023/01/31 05:42:15;;;;;;;27.05;8.38;;;2.40;99.90;;;;;;5052721;28;20049;-73
2023/01/31 05:44:43;;;;;;;26.90;9.98;;;2.40;99.90;;;;;;5049372;28;20124;-70
2023/01/31 05:47:10;;;;;;;22.15;7.35;;;2.40;99.90;;;;;;5031278;28;20048;-71
2023/01/31 05:49:38;;;;;;;28.17;8.82;;;2.30;99.90;;;;;;5038703;28;20116;-71
2023/01/31 05:52:05;;;;;;;26.10;8.43;;;2.40;99.90;;;;;;5049675;28;20395;-71
2023/01/31 05:54:33;;;;;;;19.10;7.43;;;2.30;99.90;;;;;;5039365;28;20045;-70
2023/01/31 05:57:01;;;;;;;20.67;8.45;;;2.40;99.90;;;;;;5044584;28;20405;-72
2023/01/31 05:59:30;;;;;;;28.08;8.52;;;2.40;99.90;;;;;;5019603;28;20099;-70
2023/01/31 06:01:57;;;;;;;24.13;7.93;;;2.40;99.90;;;;;;5029553;28;20037;-70
2023/01/31 06:04:24;;;;;;;19.65;7.55;;;2.40;99.90;;;;;;5064589;28;20079;-72
2023/01/31 06:06:51;;;;;;;18.48;6.53;;;2.50;99.90;;;;;;5056937;28;20051;-71
2023/01/31 06:09:19;;;;;;;19.23;7.00;;;2.50;99.90;;;;;;5068985;28;20045;-72
2023/01/31 06:11:46;;;;;;;19.10;6.90;;;2.50;99.90;;;;;;5070620;28;20055;-70
2023/01/31 06:14:13;;;;;;;20.25;7.15;;;2.50;99.90;;;;;;5070307;28;20043;-72
2023/01/31 06:16:40;;;;;;;14.57;6.65;;;2.50;99.90;;;;;;5049232;28;20056;-71
2023/01/31 06:19:08;;;;;;;21.15;7.28;;;2.60;99.90;;;;;;5080575;28;20051;-71
2023/01/31 06:21:35;;;;;;;16.95;6.60;;;2.50;99.90;;;;;;5069250;28;20051;-71
2023/01/31 06:24:03;;;;;;;17.90;6.18;;;2.50;99.90;;;;;;5070011;28;20109;-71
2023/01/31 06:26:30;;;;;;;23.65;7.50;;;2.50;99.90;;;;;;5068705;28;20041;-72
2023/01/31 06:28:58;;;;;;;25.48;7.45;;;2.50;99.90;;;;;;5070329;28;20041;-71
2023/01/31 06:31:25;;;;;;;23.00;7.20;;;2.60;99.90;;;;;;5052580;28;20033;-72
2023/01/31 06:33:53;;;;;;;27.05;7.93;;;2.60;99.90;;;;;;5070401;28;20037;-71
2023/01/31 06:36:20;;;;;;;24.73;7.13;;;2.60;99.90;;;;;;5070122;28;20564;-71
2023/01/31 06:38:49;;;;;;;24.00;6.70;;;2.70;99.90;;;;;;5050857;28;20116;-71
2023/01/31 06:41:18;;;;;;;24.17;6.13;;;2.70;99.90;;;;;;5036120;28;20429;-71
2023/01/31 06:43:46;;;;;;;18.25;7.07;;;2.70;99.90;;;;;;5052508;28;20131;-71
2023/01/31 06:46:13;;;;;;;15.93;6.70;;;2.70;99.90;;;;;;5052004;28;20407;-70
2023/01/31 06:48:40;;;;;;;22.00;5.70;;;2.70;99.90;;;;;;5050770;28;20535;-70
2023/01/31 06:51:08;;;;;;;17.30;6.00;;;2.70;99.90;;;;;;5053151;28;20480;-71
2023/01/31 06:53:35;;;;;;;20.90;5.68;;;2.70;99.90;;;;;;5046039;28;20045;-71
2023/01/31 06:56:03;;;;;;;23.27;6.72;;;2.80;99.90;;;;;;5059688;28;20558;-71
2023/01/31 06:58:32;;;;;;;21.08;6.40;;;2.80;99.90;;;;;;5030016;28;20160;-71
2023/01/31 07:01:11;;;;;;;22.80;7.15;;;2.80;99.90;;;;;;5059585;28;20467;-72
2023/01/31 07:03:39;;;;;;;21.23;6.60;;;2.80;99.90;;;;;;5048469;28;20059;-71
2023/01/31 07:06:07;;;;;;;20.17;6.65;;;2.80;99.90;;;;;;5055920;28;20127;-70
2023/01/31 07:08:35;;;;;;;18.20;7.20;;;2.80;99.90;;;;;;5051247;28;20654;-71
2023/01/31 07:11:04;;;;;;;16.92;6.72;;;2.80;99.90;;;;;;5062462;28;20044;-71
2023/01/31 07:13:32;;;;;;;22.80;7.32;;;2.80;99.90;;;;;;5071352;28;20047;-70
2023/01/31 07:15:59;;;;;;;19.02;6.55;;;2.70;99.90;;;;;;5071493;28;20423;-72
2023/01/31 07:18:26;;;;;;;20.20;7.78;;;2.80;99.90;;;;;;5039579;28;20048;-72
2023/01/31 07:20:54;;;;;;;18.10;8.13;;;2.80;99.90;;;;;;5048911;28;20511;-71
2023/01/31 07:23:22;;;;;;;27.92;7.85;;;2.70;99.90;;;;;;5062776;28;20044;-72
2023/01/31 07:25:52;;;;;;;20.42;7.18;;;2.70;99.90;;;;;;5056053;28;20075;-71
2023/01/31 07:28:19;;;;;;;28.38;7.63;;;2.80;99.90;;;;;;5054991;28;20044;-72
2023/01/31 07:30:47;;;;;;;20.70;7.50;;;2.80;99.90;;;;;;5041886;28;20503;-69
2023/01/31 07:33:14;;;;;;;13.75;6.90;;;2.80;99.90;;;;;;5072708;28;20475;-72
2023/01/31 07:35:42;;;;;;;21.77;7.75;;;2.70;99.90;;;;;;5073162;28;20048;-70
2023/01/31 07:38:09;;;;;;;28.20;7.80;;;2.70;99.90;;;;;;5069075;28;20414;-73
2023/01/31 07:40:38;;;;;;;17.48;7.60;;;2.70;99.90;;;;;;5069486;28;20110;-73
2023/01/31 07:43:06;;;;;;;16.00;7.55;;;2.60;99.90;;;;;;5070681;28;20479;-72
2023/01/31 07:45:33;;;;;;;21.77;7.82;;;2.70;99.90;;;;;;5052855;28;20159;-71
2023/01/31 07:48:01;;;;;;;24.00;8.70;;;2.70;99.90;;;;;;5070819;28;20408;-71
2023/01/31 07:50:29;;;;;;;21.90;8.13;;;2.70;99.90;;;;;;5019357;28;20435;-70
2023/01/31 07:52:57;;;;;;;18.50;8.48;;;2.70;99.90;;;;;;5040751;28;20514;-72
2023/01/31 07:55:25;;;;;;;22.85;8.55;;;2.70;99.90;;;;;;5048080;28;20045;-69
2023/01/31 07:57:53;;;;;;;20.80;8.63;;;2.70;99.90;;;;;;5050150;28;20423;-69
2023/01/31 08:03:34;;;;;;;17.92;8.38;;;2.80;99.90;;;;;;5051796;28;20048;-72
2023/01/31 08:06:05;;;;;;;20.40;8.73;;;2.80;99.90;;;;;;5041132;28;20055;-72
2023/01/31 08:08:33;;;;;;;19.75;9.10;;;2.90;99.90;;;;;;5031497;28;20073;-72
2023/01/31 08:11:03;;;;;;;22.73;9.02;;;2.80;99.90;;;;;;5047832;28;20044;-71
2023/01/31 08:13:34;;;;;;;20.67;9.25;;;2.80;99.90;;;;;;5086065;28;20111;-72
2023/01/31 08:16:03;;;;;;;21.38;9.18;;;2.90;99.90;;;;;;5053533;28;20399;-71
2023/01/31 08:18:30;;;;;;;21.80;9.18;;;2.90;99.90;;;;;;5031396;28;20441;-72
2023/01/31 08:20:58;;;;;;;23.63;8.55;;;2.90;99.90;;;;;;5030994;28;20050;-71
2023/01/31 08:23:27;;;;;;;21.60;9.52;;;2.80;99.90;;;;;;5014194;28;20045;-72
2023/01/31 08:26:07;;;;;;;24.13;9.45;;;2.80;99.90;;;;;;5049774;28;20475;-72
2023/01/31 08:28:35;;;;;;;30.42;9.88;;;2.70;99.90;;;;;;5047857;28;20114;-71
2023/01/31 08:31:03;;;;;;;23.85;9.48;;;2.70;99.90;;;;;;5049673;28;20037;-72
2023/01/31 08:33:37;;;;;;;20.77;8.80;;;2.60;99.90;;;;;;5032242;28;20471;-73
2023/01/31 08:36:16;;;;;;;23.35;10.60;;;2.60;99.90;;;;;;5051331;28;20136;-72
2023/01/31 08:38:43;;;;;;;23.60;10.40;;;2.70;99.90;;;;;;5015597;28;20045;-72
2023/01/31 08:41:12;;;;;;;21.05;9.68;;;2.80;99.90;;;;;;5017004;28;20522;-73
2023/01/31 08:43:39;;;;;;;21.92;8.85;;;2.80;99.90;;;;;;5039280;28;20049;-72
2023/01/31 08:46:25;;;;;;;27.35;9.73;;;3.00;99.90;;;;;;5031116;28;20072;-73
2023/01/31 08:48:53;;;;;;;19.88;9.00;;;3.10;99.90;;;;;;5042140;28;20190;-73
2023/01/31 08:51:21;;;;;;;21.80;9.27;;;3.20;99.90;;;;;;5031288;28;20045;-73
2023/01/31 08:53:48;;;;;;;23.13;9.07;;;3.10;99.90;;;;;;5045258;28;20033;-73
2023/01/31 08:56:16;;;;;;;16.83;8.65;;;3.10;99.90;;;;;;5029489;28;20699;-73
2023/01/31 08:58:44;;;;;;;24.38;9.35;;;3.10;99.90;;;;;;5029319;28;20056;-73
2023/01/31 09:01:13;;;;;;;20.70;9.32;;;3.10;99.90;;;;;;5045999;28;20038;-71
2023/01/31 09:03:41;;;;;;;20.98;8.90;;;3.00;99.90;;;;;;5044297;28;20045;-73
2023/01/31 09:06:16;;;;;;;16.27;8.20;;;3.10;99.90;;;;;;5030161;28;20523;-73
2023/01/31 09:08:44;;;;;;;27.35;8.85;;;3.00;99.90;;;;;;5029483;28;20083;-73
2023/01/31 09:11:17;;;;;;;22.98;8.52;;;3.00;99.90;;;;;;5029631;28;20056;-72
2023/01/31 09:13:49;;;;;;;21.05;8.30;;;3.00;99.90;;;;;;5044608;28;20488;-68
2023/01/31 09:16:18;;;;;;;;;;;3.10;99.90;;;;;;5030247;28;20065;-72
2023/01/31 09:18:46;;;;;;;14.73;7.90;;;3.10;99.90;;;;;;5028745;28;20035;-72
2023/01/31 09:21:15;;;;;;;18.67;8.88;;;3.10;99.90;;;;;;5028998;28;20552;-72
2023/01/31 09:23:43;;;;;;;18.60;8.68;;;3.20;99.90;;;;;;5044690;28;20080;-71
2023/01/31 09:26:11;;;;;;;19.52;9.38;;;3.10;99.90;;;;;;5030481;28;20519;-72
2023/01/31 09:28:42;;;;;;;25.08;8.95;;;3.10;99.90;;;;;;5029780;28;20045;-71
2023/01/31 09:31:15;;;;;;;19.45;8.43;;;3.10;99.90;;;;;;5041120;28;20067;-74
2023/01/31 09:33:43;;;;;;;21.25;9.13;;;3.10;99.90;;;;;;5047592;28;20178;-74
2023/01/31 09:36:16;;;;;;;17.83;8.82;;;3.20;99.90;;;;;;5064588;28;20036;-73
2023/01/31 09:38:43;;;;;;;18.98;9.30;;;3.10;99.90;;;;;;5057259;28;20467;-71
2023/01/31 09:41:32;;;;;;;18.83;8.65;;;3.10;99.90;;;;;;5030295;28;20041;-70
2023/01/31 09:44:31;;;;;;;20.50;8.93;;;3.10;99.90;;;;;;5029432;28;20132;-72
2023/01/31 09:47:27;;;;;;;18.02;8.60;;;3.10;99.90;;;;;;5029018;28;20464;-73
2023/01/31 09:50:36;;;;;;;22.92;9.45;;;3.20;99.90;;;;;;5041389;28;20124;-73
2023/01/31 09:53:04;;;;;;;22.17;9.95;;;3.30;99.90;;;;;;5049467;28;20486;-74
2023/01/31 09:55:51;;;;;;;25.20;8.68;;;3.30;99.90;;;;;;5030994;28;20067;-73
2023/01/31 09:58:42;;;;;;;21.88;9.05;;;3.50;99.90;;;;;;5027737;28;20419;-71
2023/01/31 10:01:31;;;;;;;19.05;8.63;;;3.50;99.90;;;;;;5046375;28;20420;-74
2023/01/31 10:04:31;;;;;;;20.60;9.18;;;3.50;99.90;;;;;;5047125;28;20155;-70
2023/01/31 10:07:30;;;;;;;21.65;8.38;;;3.60;99.90;;;;;;5031786;28;20337;-70
2023/01/31 10:10:34;;;;;;;18.90;8.73;;;3.50;99.90;;;;;;5037189;28;20085;-72
2023/01/31 10:13:10;;;;;;;17.40;8.52;;;3.60;99.90;;;;;;5028530;28;20073;-71
2023/01/31 10:16:06;;;;;;;19.20;8.77;;;3.80;99.90;;;;;;5033294;28;20052;-72
2023/01/31 10:18:38;;;;;;;20.48;8.65;;;3.90;99.90;;;;;;5032792;28;20511;-72
2023/01/31 10:21:19;;;;;;;21.73;8.55;;;4.00;99.90;;;;;;5031771;28;20046;-73
2023/01/31 10:24:04;;;;;;;20.88;8.15;;;4.20;99.90;;;;;;5036165;28;20144;-71
2023/01/31 10:26:35;;;;;;;15.93;7.72;;;4.20;99.90;;;;;;5050991;28;20075;-69
2023/01/31 10:29:09;;;;;;;24.27;8.30;;;4.20;99.90;;;;;;5048667;28;20037;-71
2023/01/31 10:31:54;;;;;;;25.17;9.02;;;4.20;99.90;;;;;;5049076;28;20048;-71
2023/01/31 10:34:46;;;;;;;21.20;7.93;;;4.10;99.90;;;;;;5047996;28;20041;-73
2023/01/31 10:37:31;;;;;;;22.80;9.07;;;4.40;99.90;;;;;;5059137;28;20065;-72
2023/01/31 10:40:05;;;;;;;18.90;7.68;;;4.40;99.90;;;;;;5050186;28;20076;-71
2023/01/31 10:42:37;;;;;;;17.92;7.35;;;4.60;99.90;;;;;;5061203;28;20087;-71
2023/01/31 10:45:07;;;;;;;19.83;9.00;;;4.60;99.90;;;;;;5031994;28;20072;-71
2023/01/31 10:47:48;;;;;;;18.75;8.18;;;4.60;99.90;;;;;;5049977;28;20491;-68
2023/01/31 10:50:45;;;;;;;19.48;7.45;;;4.60;99.90;;;;;;5051581;28;20048;-73
2023/01/31 10:53:22;;;;;;;17.10;7.80;;;4.50;99.90;;;;;;5029435;28;20067;-71
2023/01/31 10:56:03;;;;;;;20.73;7.60;;;4.60;99.90;;;;;;5031128;28;20045;-72
2023/01/31 10:58:31;;;;;;;23.42;8.57;;;4.60;99.90;;;;;;5031632;28;20539;-73
2023/01/31 11:00:59;;;;;;;14.43;7.22;;;4.40;99.90;;;;;;5047126;28;20140;-68
2023/01/31 11:03:26;;;;;;;18.27;8.30;;;4.30;99.90;;;;;;5032060;28;20512;-71
2023/01/31 11:05:56;;;;;;;22.63;8.77;;;4.30;99.90;;;;;;5031381;28;20042;-72
2023/01/31 11:08:35;;;;;;;16.42;7.45;;;4.20;99.90;;;;;;5058135;28;20037;-70
2023/01/31 11:11:09;;;;;;;24.05;8.48;;;4.10;99.90;;;;;;5032140;28;20451;-75
2023/01/31 11:13:37;;;;;;;20.27;7.88;;;3.90;99.90;;;;;;5031530;28;20048;-73
2023/01/31 11:16:10;;;;;;;21.38;8.70;;;3.90;99.90;;;;;;5031837;28;20159;-69
2023/01/31 11:18:46;;;;;;;17.75;9.15;;;3.90;99.90;;;;;;5031269;28;20107;-70
2023/01/31 11:21:25;;;;;;;15.70;8.52;;;3.90;99.90;;;;;;5031000;28;20061;-71
2023/01/31 11:24:01;;;;;;;21.83;8.57;;;4.00;99.90;;;;;;5031085;28;20041;-72
2023/01/31 11:26:37;;;;;;;18.10;7.50;;;4.00;99.90;;;;;;5030305;28;20041;-69
2023/01/31 11:29:25;;;;;;;18.00;8.75;;;4.10;99.90;;;;;;5031660;28;20064;-73
2023/01/31 11:31:53;;;;;;;16.05;7.65;;;4.30;99.90;;;;;;5049672;28;20041;-71
2023/01/31 11:34:28;;;;;;;16.55;7.70;;;5.00;99.90;;;;;;5050233;28;20049;-72
2023/01/31 11:37:14;;;;;;;18.50;7.40;;;5.80;99.90;;;;;;5039708;28;20033;-72
2023/01/31 11:39:52;;;;;;;15.27;7.20;;;6.20;99.90;;;;;;5032406;28;20053;-73
2023/01/31 11:42:20;;;;;;;17.52;7.65;;;6.40;99.90;;;;;;5049326;28;20063;-73
2023/01/31 11:44:59;;;;;;;18.70;7.55;;;6.50;99.90;;;;;;5046009;28;20069;-74
2023/01/31 11:47:51;;;;;;;16.50;6.55;;;6.50;99.90;;;;;;5032139;28;20045;-73
2023/01/31 11:50:23;;;;;;;20.42;7.70;;;6.30;99.90;;;;;;5046793;28;20127;-74
2023/01/31 11:52:56;;;;;;;16.02;7.70;;;6.30;99.90;;;;;;5033952;28;20515;-69
2023/01/31 11:55:25;;;;;;;18.42;6.97;;;6.00;99.90;;;;;;5050338;28;20147;-73
2023/01/31 11:57:58;;;;;;;19.92;8.50;;;5.30;99.90;;;;;;5049576;28;20380;-71
2023/01/31 12:00:29;;;;;;;17.27;7.90;;;5.10;99.90;;;;;;5045292;28;20040;-73
2023/01/31 12:03:06;;;;;;;16.47;7.60;;;4.80;99.90;;;;;;5050066;28;20052;-75
2023/01/31 12:05:40;;;;;;;19.08;7.82;;;4.30;99.90;;;;;;5049369;28;20053;-73
2023/01/31 12:08:30;;;;;;;17.80;7.70;;;4.20;99.90;;;;;;5049792;28;20469;-74
2023/01/31 12:10:58;;;;;;;20.17;7.68;;;4.10;99.90;;;;;;5032600;28;20381;-75
2023/01/31 12:13:27;;;;;;;17.90;8.10;;;4.00;99.90;;;;;;5037948;28;20047;-71
2023/01/31 12:15:58;;;;;;;17.27;6.88;;;3.80;99.90;;;;;;5050395;28;20123;-73
2023/01/31 12:18:42;;;;;;;20.75;7.85;;;3.90;99.90;;;;;;5042119;28;20037;-74
2023/01/31 12:21:30;;;;;;;16.23;7.50;;;3.80;99.90;;;;;;5028479;28;20045;-74
2023/01/31 12:24:13;;;;;;;19.23;7.82;;;3.80;99.90;;;;;;5030407;28;20090;-73
2023/01/31 12:26:45;;;;;;;;;;;3.70;99.90;;;;;;5030492;28;20124;-72
2023/01/31 12:29:24;;;;;;;13.50;6.80;;;3.70;99.90;;;;;;5029409;28;19921;-72
2023/01/31 12:32:22;;;;;;;20.80;7.78;;;3.70;99.90;;;;;;5048272;28;20076;-73
2023/01/31 12:35:16;;;;;;;24.10;8.63;;;3.80;99.90;;;;;;5051712;28;20046;-74
2023/01/31 12:37:56;;;;;;;21.73;7.43;;;3.70;99.90;;;;;;5039489;28;20515;-73
2023/01/31 12:40:37;;;;;;;20.25;7.32;;;3.60;99.90;;;;;;5033667;28;20419;-74
2023/01/31 12:43:24;;;;;;;18.33;7.30;;;3.70;99.90;;;;;;5029556;28;20465;-74
2023/01/31 12:46:10;;;;;;;21.80;7.55;;;3.60;99.90;;;;;;5055755;28;20056;-73
2023/01/31 12:48:54;;;;;;;14.80;6.90;;;3.60;99.90;;;;;;5040296;28;20424;-71
2023/01/31 12:51:28;;;;;;;20.92;7.72;;;3.60;99.90;;;;;;5028765;28;20124;-72
2023/01/31 12:54:04;;;;;;;18.38;7.40;;;3.60;99.90;;;;;;5030437;28;20488;-72
2023/01/31 12:56:56;;;;;;;18.40;8.35;;;3.60;99.90;;;;;;5028281;28;20152;-72
2023/01/31 12:59:50;;;;;;;13.77;7.28;;;3.60;99.90;;;;;;5029735;28;20496;-74
2023/01/31 13:02:36;;;;;;;26.92;8.55;;;3.60;99.90;;;;;;5028346;28;20105;-72
2023/01/31 13:05:15;;;;;;;19.42;7.32;;;3.60;99.90;;;;;;5029970;28;20048;-73
2023/01/31 13:07:52;;;;;;;19.13;8.27;;;3.50;99.90;;;;;;5030430;28;20072;-73
2023/01/31 13:10:27;;;;;;;19.65;7.25;;;3.50;99.90;;;;;;5048264;28;20617;-71
2023/01/31 13:12:57;;;;;;;21.48;7.72;;;3.50;99.90;;;;;;5046691;28;20190;-74
2023/01/31 13:15:42;;;;;;;26.83;7.10;;;3.50;99.90;;;;;;5030151;28;20042;-72
2023/01/31 13:18:11;;;;;;;19.10;7.80;;;3.40;99.90;;;;;;5045224;28;20468;-74
2023/01/31 13:20:44;;;;;;;18.70;7.50;;;3.40;99.90;;;;;;5030876;28;20414;-72
2023/01/31 13:23:20;;;;;;;15.68;7.50;;;3.40;99.90;;;;;;5029755;28;20049;-72
2023/01/31 13:26:17;;;;;;;17.85;7.35;;;3.40;99.90;;;;;;5030751;28;20184;-74